Time;durP1;ratioP1;P1;durP2;ratioP2;P2;SDS_P1;SDS_P2;PMS_P1;PMS_P2;Temp;Humidity;BMP_temperature;BMP_pressure;BME280_temperature;BME280_humidity;BME280_pressure;Samples;Min_cycle;Max_cycle;Signal;HPM_P1;HPM_P2
2022/07/28 00:01:32;;;;;;;4.55;1.20;;;;;;;-148.56;100.00;61375.16;4953234;28;20068;-30
2022/07/28 00:03:58;;;;;;;2.88;1.38;;;;;;;-148.56;100.00;61375.16;4952696;28;20034;-30
2022/07/28 00:06:23;;;;;;;4.40;1.63;;;;;;;-148.56;100.00;61375.16;4953950;28;20092;-30
2022/07/28 00:08:48;;;;;;;1.83;0.90;;;;;;;-148.56;100.00;61375.16;4949491;28;20026;-29
2022/07/28 00:11:14;;;;;;;5.15;1.20;;;;;;;-148.56;100.00;61375.16;4955507;28;20030;-28
2022/07/28 00:13:39;;;;;;;5.05;1.02;;;;;;;-148.56;100.00;61375.16;4955563;28;20044;-27
2022/07/28 00:16:06;;;;;;;3.25;1.33;;;;;;;-148.56;100.00;61375.16;4948385;28;21451;-28
2022/07/28 00:18:31;;;;;;;2.03;1.20;;;;;;;-148.56;100.00;61375.16;4959327;28;20073;-29
2022/07/28 00:20:57;;;;;;;5.20;1.40;;;;;;;-148.56;100.00;61375.16;4955246;28;20958;-30
2022/07/28 00:23:22;;;;;;;2.90;1.30;;;;;;;-148.56;100.00;61375.16;4956088;28;20517;-28
2022/07/28 00:25:47;;;;;;;3.88;1.40;;;;;;;-148.56;100.00;61375.16;4960578;28;20057;-29
2022/07/28 00:28:13;;;;;;;3.72;1.40;;;;;;;-148.56;100.00;61375.16;4953451;28;20025;-27
2022/07/28 00:30:38;;;;;;;2.85;1.40;;;;;;;-148.56;100.00;61375.16;4955294;28;20033;-29
2022/07/28 00:33:04;;;;;;;2.00;1.10;;;;;;;-148.56;100.00;61375.16;4953092;28;20029;-31
2022/07/28 00:35:29;;;;;;;2.08;1.20;;;;;;;-148.56;100.00;61375.16;4949924;28;20026;-28
2022/07/28 00:37:55;;;;;;;3.63;1.30;;;;;;;-148.56;100.00;61375.16;4950448;28;20045;-31
2022/07/28 00:40:20;;;;;;;2.85;1.30;;;;;;;-148.56;100.00;61375.16;4953640;28;20256;-29
2022/07/28 00:42:45;;;;;;;2.80;1.25;;;;;;;-148.56;100.00;61375.16;4956074;28;20129;-28
2022/07/28 00:45:11;;;;;;;3.03;1.30;;;;;;;-148.56;100.00;61375.16;4953793;28;20045;-29
2022/07/28 00:47:36;;;;;;;4.72;1.08;;;;;;;-148.56;100.00;61375.16;4949974;28;20040;-29
2022/07/28 00:50:02;;;;;;;3.42;1.23;;;;;;;-148.56;100.00;61375.16;4952582;28;20034;-26
2022/07/28 00:52:28;;;;;;;2.05;1.33;;;;;;;-148.56;100.00;61375.16;4946977;28;20478;-30
2022/07/28 00:54:53;;;;;;;1.67;1.23;;;;;;;-148.56;100.00;61375.16;4946476;28;20041;-26
2022/07/28 00:57:20;;;;;;;10.02;1.40;;;;;;;-148.56;100.00;61375.16;4946275;28;20045;-26
2022/07/28 00:59:46;;;;;;;3.13;1.52;;;;;;;-148.56;100.00;61375.16;4950698;28;20112;-27
2022/07/28 01:02:11;;;;;;;3.90;1.30;;;;;;;-148.56;100.00;61375.16;4946363;28;20068;-26
2022/07/28 01:04:36;;;;;;;2.75;1.20;;;;;;;-148.56;100.00;61375.16;4949977;28;20038;-31
2022/07/28 01:07:22;;;;;;;2.28;1.08;;;;;;;-148.56;100.00;61375.16;4951623;28;20644;-27
2022/07/28 01:09:50;;;;;;;3.22;1.30;;;;;;;-148.56;100.00;61375.16;4947779;28;20305;-28
2022/07/28 01:12:15;;;;;;;3.13;1.20;;;;;;;-148.56;100.00;61375.16;4948735;28;20108;-29
2022/07/28 01:14:48;;;;;;;2.20;1.08;;;;;;;-148.56;100.00;61375.16;4951423;28;20071;-29
2022/07/28 01:17:39;;;;;;;3.08;1.08;;;;;;;-148.56;100.00;61375.16;4945363;28;20036;-29
2022/07/28 01:20:12;;;;;;;4.47;1.20;;;;;;;-148.56;100.00;61375.16;4937810;28;20044;-27
2022/07/28 01:22:58;;;;;;;7.95;1.48;;;;;;;-148.56;100.00;61375.16;4965429;28;20045;-26
2022/07/28 01:25:38;;;;;;;5.13;1.27;;;;;;;-148.56;100.00;61375.16;4947655;28;20108;-29
2022/07/28 01:28:22;;;;;;;5.10;1.50;;;;;;;-148.56;100.00;61375.16;4951056;28;20052;-29
2022/07/28 01:30:49;;;;;;;5.15;1.08;;;;;;;-148.56;100.00;61375.16;4949422;28;20032;-32
2022/07/28 01:33:16;;;;;;;2.42;0.98;;;;;;;-148.56;100.00;61375.16;4947859;28;20805;-30
2022/07/28 01:35:45;;;;;;;2.38;1.20;;;;;;;-148.56;100.00;61375.16;4956203;28;20601;-28
2022/07/28 01:38:10;;;;;;;5.03;1.45;;;;;;;-148.56;100.00;61375.16;4953833;28;20033;-27
2022/07/28 01:40:35;;;;;;;2.63;1.20;;;;;;;-148.56;100.00;61375.16;4945253;28;20053;-32
2022/07/28 01:43:04;;;;;;;4.35;1.10;;;;;;;-148.56;100.00;61375.16;4954491;28;20041;-29
2022/07/28 01:45:29;;;;;;;2.65;1.33;;;;;;;-148.56;100.00;61375.16;4950400;28;20615;-30
2022/07/28 01:47:56;;;;;;;2.05;0.98;;;;;;;-148.56;100.00;61375.16;4952091;28;20029;-28
2022/07/28 01:50:22;;;;;;;5.20;1.50;;;;;;;-148.56;100.00;61375.16;4973742;28;20040;-26
2022/07/28 01:52:47;;;;;;;3.58;1.38;;;;;;;-148.56;100.00;61375.16;4956031;28;20219;-27
2022/07/28 01:55:13;;;;;;;3.65;1.30;;;;;;;-148.56;100.00;61375.16;4954038;28;20034;-29
2022/07/28 01:57:38;;;;;;;3.72;1.42;;;;;;;-148.56;100.00;61375.16;4953598;28;20044;-29
2022/07/28 02:00:06;;;;;;;2.13;0.90;;;;;;;-148.56;100.00;61375.16;4982884;28;20038;-31
2022/07/28 02:02:31;;;;;;;3.22;1.50;;;;;;;-148.56;100.00;61375.16;4952832;28;20036;-27
2022/07/28 02:04:57;;;;;;;1.75;1.00;;;;;;;-148.56;100.00;61375.16;4947193;28;20041;-28
2022/07/28 02:07:23;;;;;;;1.70;1.10;;;;;;;-148.56;100.00;61375.16;4951371;28;20038;-28
2022/07/28 02:09:48;;;;;;;3.00;1.10;;;;;;;-148.56;100.00;61375.16;4954608;28;20022;-31
2022/07/28 02:12:14;;;;;;;4.18;1.23;;;;;;;-148.56;100.00;61375.16;4937933;28;20036;-25
2022/07/28 02:14:39;;;;;;;2.50;1.20;;;;;;;-148.56;100.00;61375.16;4947114;28;20052;-28
2022/07/28 02:17:09;;;;;;;2.55;1.13;;;;;;;-148.56;100.00;61375.16;4953215;28;20030;-27
2022/07/28 02:19:34;;;;;;;2.97;0.98;;;;;;;-148.56;100.00;61375.16;4946953;28;20084;-29
2022/07/28 02:22:00;;;;;;;3.35;1.25;;;;;;;-148.56;100.00;61375.16;4934196;28;20700;-29
2022/07/28 02:24:25;;;;;;;3.00;1.17;;;;;;;-148.56;100.00;61375.16;4953394;28;21243;-26
2022/07/28 02:26:55;;;;;;;2.47;1.42;;;;;;;-148.56;100.00;61375.16;4956360;28;20245;-30
2022/07/28 02:29:22;;;;;;;2.90;1.23;;;;;;;-148.56;100.00;61375.16;4949148;28;20048;-29
2022/07/28 02:32:11;;;;;;;4.57;1.45;;;;;;;-148.56;100.00;61375.16;4953846;28;20068;-30
2022/07/28 02:34:37;;;;;;;4.32;1.65;;;;;;;-148.56;100.00;61375.16;4952866;28;20045;-31
2022/07/28 02:37:03;;;;;;;3.33;1.50;;;;;;;-148.56;100.00;61375.16;4959399;28;20113;-28
2022/07/28 02:39:32;;;;;;;2.42;1.10;;;;;;;-148.56;100.00;61375.16;4951441;28;20033;-30
2022/07/28 02:42:08;;;;;;;2.30;1.10;;;;;;;-148.56;100.00;61375.16;4955478;28;20720;-30
2022/07/28 02:44:41;;;;;;;3.97;1.27;;;;;;;-148.56;100.00;61375.16;4956170;28;20061;-27
2022/07/28 02:47:09;;;;;;;2.72;1.27;;;;;;;-148.56;100.00;61375.16;4937406;28;20088;-29
2022/07/28 02:49:35;;;;;;;2.22;1.10;;;;;;;-148.56;100.00;61375.16;4962451;28;20045;-28
2022/07/28 02:52:00;;;;;;;2.55;1.33;;;;;;;-148.56;100.00;61375.16;4953901;28;20034;-26
2022/07/28 02:54:27;;;;;;;3.63;1.33;;;;;;;-148.56;100.00;61375.16;4951799;28;20052;-28
2022/07/28 02:56:53;;;;;;;4.13;1.27;;;;;;;-148.56;100.00;61375.16;4978161;28;20140;-28
2022/07/28 02:59:18;;;;;;;2.08;1.00;;;;;;;-148.56;100.00;61375.16;4960495;28;20667;-24
2022/07/28 03:01:44;;;;;;;4.25;1.10;;;;;;;-148.56;100.00;61375.16;4952659;28;20030;-30
2022/07/28 03:04:09;;;;;;;4.97;1.27;;;;;;;-148.56;100.00;61375.16;4947023;28;20478;-28
2022/07/28 03:06:35;;;;;;;2.97;1.30;;;;;;;-148.56;100.00;61375.16;4952504;28;20030;-29
2022/07/28 03:09:00;;;;;;;3.50;1.35;;;;;;;-148.56;100.00;61375.16;4949886;28;22102;-30
2022/07/28 03:11:26;;;;;;;2.88;0.95;;;;;;;-148.56;100.00;61375.16;4952011;28;20038;-29
2022/07/28 03:13:51;;;;;;;2.90;1.05;;;;;;;-148.56;100.00;61375.16;4948594;28;20115;-29
2022/07/28 03:16:17;;;;;;;2.08;0.90;;;;;;;-148.56;100.00;61375.16;4949633;28;20708;-26
2022/07/28 03:18:42;;;;;;;2.05;1.15;;;;;;;-148.56;100.00;61375.16;4950383;28;20626;-27
2022/07/28 03:21:08;;;;;;;2.75;1.20;;;;;;;-148.56;100.00;61375.16;4954996;28;20038;-26
2022/07/28 03:23:41;;;;;;;1.75;1.02;;;;;;;-148.56;100.00;61375.16;4952752;28;20045;-29
2022/07/28 03:26:28;;;;;;;2.88;1.20;;;;;;;-148.56;100.00;61375.16;4956548;28;21034;-26
2022/07/28 03:28:53;;;;;;;2.83;1.30;;;;;;;-148.56;100.00;61375.16;4956994;28;20700;-31
2022/07/28 03:31:19;;;;;;;4.45;1.20;;;;;;;-148.56;100.00;61375.16;4932557;28;20030;-30
2022/07/28 03:33:44;;;;;;;2.50;1.13;;;;;;;-148.56;100.00;61375.16;4951984;28;21064;-27
2022/07/28 03:36:12;;;;;;;1.38;0.90;;;;;;;-148.56;100.00;61375.16;4945750;28;20029;-29
2022/07/28 03:38:52;;;;;;;1.65;0.95;;;;;;;-148.56;100.00;61375.16;4949880;28;20040;-29
2022/07/28 03:41:18;;;;;;;3.00;1.05;;;;;;;-148.56;100.00;61375.16;4962091;28;20041;-26
2022/07/28 03:43:43;;;;;;;1.80;1.05;;;;;;;-148.56;100.00;61375.16;4950679;28;20025;-27
2022/07/28 03:46:09;;;;;;;2.47;1.15;;;;;;;-148.56;100.00;61375.16;4948852;28;20763;-28
2022/07/28 03:48:34;;;;;;;2.97;1.20;;;;;;;-148.56;100.00;61375.16;4951586;28;20029;-26
2022/07/28 03:51:00;;;;;;;1.75;0.90;;;;;;;-148.56;100.00;61375.16;4952374;28;20036;-28
2022/07/28 03:53:27;;;;;;;2.45;1.20;;;;;;;-148.56;100.00;61375.16;4951142;28;20026;-32
2022/07/28 03:55:52;;;;;;;2.67;0.82;;;;;;;-148.56;100.00;61375.16;4950977;28;20099;-28
2022/07/28 03:58:19;;;;;;;2.42;1.17;;;;;;;-148.56;100.00;61375.16;4955696;28;20040;-29
2022/07/28 04:00:45;;;;;;;3.10;1.33;;;;;;;-148.56;100.00;61375.16;4947516;28;20129;-28
2022/07/28 04:03:10;;;;;;;2.28;1.00;;;;;;;-148.56;100.00;61375.16;4953233;28;20037;-26
2022/07/28 04:05:35;;;;;;;2.03;0.90;;;;;;;-148.56;100.00;61375.16;4957349;28;20041;-25
2022/07/28 04:08:01;;;;;;;1.67;1.10;;;;;;;-148.56;100.00;61375.16;4957766;28;20081;-28
2022/07/28 04:10:26;;;;;;;2.92;1.33;;;;;;;-148.56;100.00;61375.16;4959827;28;20430;-26
2022/07/28 04:12:56;;;;;;;2.88;1.30;;;;;;;-148.56;100.00;61375.16;4954794;28;20040;-26
2022/07/28 04:15:22;;;;;;;4.15;1.23;;;;;;;-148.56;100.00;61375.16;4952106;28;20128;-26
2022/07/28 04:17:48;;;;;;;2.50;1.25;;;;;;;-148.56;100.00;61375.16;4958642;28;20030;-28
2022/07/28 04:20:16;;;;;;;1.80;1.00;;;;;;;-148.56;100.00;61375.16;4953457;28;20168;-29
2022/07/28 04:22:42;;;;;;;3.58;1.38;;;;;;;-148.56;100.00;61375.16;4963456;28;20121;-28
2022/07/28 04:25:08;;;;;;;3.70;1.30;;;;;;;-148.56;100.00;61375.16;4953823;28;20149;-27
2022/07/28 04:27:35;;;;;;;3.55;1.10;;;;;;;-148.56;100.00;61375.16;4958231;28;20061;-27
2022/07/28 04:30:01;;;;;;;2.33;1.20;;;;;;;-148.56;100.00;61375.16;4959745;28;20569;-28
2022/07/28 04:32:27;;;;;;;3.55;1.25;;;;;;;-148.56;100.00;61375.16;4960676;28;20025;-28
2022/07/28 04:34:52;;;;;;;1.50;0.95;;;;;;;-148.56;100.00;61375.16;4954128;28;20037;-25
2022/07/28 04:37:17;;;;;;;2.92;1.13;;;;;;;-148.56;100.00;61375.16;4956284;28;20406;-27
2022/07/28 04:39:44;;;;;;;2.15;1.10;;;;;;;-148.56;100.00;61375.16;4955256;28;20410;-29
2022/07/28 04:42:10;;;;;;;2.17;0.93;;;;;;;-148.56;100.00;61375.16;4959017;28;20483;-29
2022/07/28 04:44:39;;;;;;;2.40;1.10;;;;;;;-148.56;100.00;61375.16;4959114;28;20877;-24
2022/07/28 04:47:04;;;;;;;2.28;1.00;;;;;;;-148.56;100.00;61375.16;4969089;28;21114;-30
2022/07/28 04:49:30;;;;;;;3.72;1.30;;;;;;;-148.56;100.00;61375.16;4955557;28;20025;-30
2022/07/28 04:51:55;;;;;;;2.78;1.23;;;;;;;-148.56;100.00;61375.16;4956015;28;20581;-30
2022/07/28 04:54:21;;;;;;;2.47;1.10;;;;;;;-148.56;100.00;61375.16;4963248;28;20986;-28
2022/07/28 04:56:46;;;;;;;2.65;1.10;;;;;;;-148.56;100.00;61375.16;4961557;28;20528;-31
2022/07/28 04:59:12;;;;;;;4.43;1.17;;;;;;;-148.56;100.00;61375.16;4960912;28;20692;-30
2022/07/28 05:01:38;;;;;;;2.17;1.00;;;;;;;-148.56;100.00;61375.16;4979786;28;20120;-32
2022/07/28 05:04:06;;;;;;;2.28;1.13;;;;;;;-148.56;100.00;61375.16;4955630;28;20068;-30
2022/07/28 05:06:33;;;;;;;2.08;1.05;;;;;;;-148.56;100.00;61375.16;4955142;28;20141;-28
2022/07/28 05:08:59;;;;;;;4.10;1.10;;;;;;;-148.56;100.00;61375.16;4953747;28;21016;-30
2022/07/28 05:11:24;;;;;;;1.92;0.82;;;;;;;-148.56;100.00;61375.16;4965140;28;20045;-31
2022/07/28 05:13:49;;;;;;;3.00;1.10;;;;;;;-148.56;100.00;61375.16;4955723;28;20302;-28
2022/07/28 05:16:15;;;;;;;2.13;1.08;;;;;;;-148.56;100.00;61375.16;4960428;28;20033;-27
2022/07/28 05:18:40;;;;;;;3.80;1.20;;;;;;;-148.56;100.00;61375.16;4968248;28;20890;-29
2022/07/28 05:21:06;;;;;;;1.00;0.90;;;;;;;-148.56;100.00;61375.16;4965681;28;20037;-29
2022/07/28 05:23:31;;;;;;;2.67;1.30;;;;;;;-148.56;100.00;61375.16;4970649;28;20070;-29
2022/07/28 05:25:57;;;;;;;8.40;1.50;;;;;;;-148.56;100.00;61375.16;4974131;28;20053;-27
2022/07/28 05:28:22;;;;;;;2.72;1.20;;;;;;;-148.56;100.00;61375.16;4955283;28;20222;-30
2022/07/28 05:30:47;;;;;;;3.03;1.35;;;;;;;-148.56;100.00;61375.16;4958267;28;20203;-27
2022/07/28 05:33:16;;;;;;;4.80;1.20;;;;;;;-148.56;100.00;61375.16;4962089;28;22298;-26
2022/07/28 05:35:43;;;;;;;5.68;1.30;;;;;;;-148.56;100.00;61375.16;4957610;28;20040;-29
2022/07/28 05:38:09;;;;;;;6.00;1.25;;;;;;;-148.56;100.00;61375.16;4964686;28;20544;-27
2022/07/28 05:40:34;;;;;;;3.88;1.35;;;;;;;-148.56;100.00;61375.16;4966117;28;20026;-25
2022/07/28 05:42:59;;;;;;;4.55;1.25;;;;;;;-148.56;100.00;61375.16;4967711;28;20645;-27
2022/07/28 05:45:25;;;;;;;2.75;1.05;;;;;;;-148.56;100.00;61375.16;4960592;28;20030;-32
2022/07/28 05:47:51;;;;;;;2.70;1.27;;;;;;;-148.56;100.00;61375.16;4962308;28;20680;-31
2022/07/28 05:50:17;;;;;;;5.18;1.45;;;;;;;-148.56;100.00;61375.16;4961264;28;20120;-30
2022/07/28 05:52:43;;;;;;;5.38;1.30;;;;;;;-148.56;100.00;61375.16;4957409;28;20045;-27
2022/07/28 05:55:09;;;;;;;5.68;1.50;;;;;;;-148.56;100.00;61375.16;4962567;28;20064;-31
2022/07/28 05:57:35;;;;;;;2.15;1.10;;;;;;;-148.56;100.00;61375.16;4959835;28;22161;-30
2022/07/28 06:00:00;;;;;;;4.50;1.30;;;;;;;-148.56;100.00;61375.16;4961925;28;20026;-29
2022/07/28 06:02:26;;;;;;;5.85;1.63;;;;;;;-148.56;100.00;61375.16;4960818;28;20032;-27
2022/07/28 06:04:51;;;;;;;4.95;1.70;;;;;;;-148.56;100.00;61375.16;4969605;28;20521;-29
2022/07/28 06:07:17;;;;;;;9.48;1.80;;;;;;;-148.56;100.00;61375.16;4968113;28;20065;-25
2022/07/28 06:09:42;;;;;;;9.45;1.85;;;;;;;-148.56;100.00;61375.16;4964165;28;20102;-29
2022/07/28 06:12:08;;;;;;;8.05;1.63;;;;;;;-148.56;100.00;61375.16;4959914;28;21312;-29
2022/07/28 06:14:33;;;;;;;9.63;2.00;;;;;;;-148.56;100.00;61375.16;4952659;28;20027;-32
2022/07/28 06:16:58;;;;;;;15.23;2.47;;;;;;;-148.56;100.00;61375.16;4957163;28;21200;-29
2022/07/28 06:19:24;;;;;;;24.10;2.78;;;;;;;-148.56;100.00;61375.16;4957566;28;20114;-27
2022/07/28 06:21:51;;;;;;;35.75;3.45;;;;;;;-148.56;100.00;61375.16;4965527;28;20972;-29
2022/07/28 06:24:17;;;;;;;13.05;3.45;;;;;;;-148.56;100.00;61375.16;4961536;28;20047;-28
2022/07/28 06:26:42;;;;;;;32.33;3.95;;;;;;;-148.56;100.00;61375.16;4955698;28;20033;-27
2022/07/28 06:29:07;;;;;;;20.35;3.08;;;;;;;-148.56;100.00;61375.16;4955793;28;20038;-30
2022/07/28 06:31:33;;;;;;;21.42;3.58;;;;;;;-148.56;100.00;61375.16;4959914;28;20034;-29
2022/07/28 06:33:59;;;;;;;22.38;3.40;;;;;;;-148.56;100.00;61375.16;4950345;28;20037;-26
2022/07/28 06:36:24;;;;;;;14.98;2.67;;;;;;;-148.56;100.00;61375.16;4957621;28;20152;-27
2022/07/28 06:38:49;;;;;;;10.43;3.20;;;;;;;-148.56;100.00;61375.16;4961434;28;20034;-31
2022/07/28 06:41:15;;;;;;;9.18;2.83;;;;;;;-148.56;100.00;61375.16;4958939;28;20033;-28
2022/07/28 06:43:40;;;;;;;19.65;2.75;;;;;;;-148.56;100.00;61375.16;4952690;28;20685;-28
2022/07/28 06:46:06;;;;;;;11.15;2.92;;;;;;;-148.56;100.00;61375.16;4951624;28;20034;-30
2022/07/28 06:48:31;;;;;;;8.70;3.03;;;;;;;-148.56;100.00;61375.16;4953794;28;20036;-30
2022/07/28 06:50:58;;;;;;;8.00;2.60;;;;;;;-148.56;100.00;61375.16;4950280;28;20029;-39
2022/07/28 06:53:24;;;;;;;10.63;2.70;;;;;;;-148.56;100.00;61375.16;4946374;28;20056;-26
2022/07/28 06:55:49;;;;;;;9.13;2.58;;;;;;;-148.56;100.00;61375.16;4949473;28;20025;-32
2022/07/28 06:58:15;;;;;;;6.95;2.90;;;;;;;-148.56;100.00;61375.16;4958980;28;22138;-28
2022/07/28 07:00:40;;;;;;;13.32;2.92;;;;;;;-148.56;100.00;61375.16;4971827;28;20033;-26
2022/07/28 07:03:05;;;;;;;11.05;3.10;;;;;;;-148.56;100.00;61375.16;4962151;28;20026;-25
2022/07/28 07:05:31;;;;;;;8.88;3.17;;;;;;;-148.56;100.00;61375.16;4970246;28;20041;-28
2022/07/28 07:07:56;;;;;;;8.35;3.20;;;;;;;-148.56;100.00;61375.16;4968243;28;20033;-25
2022/07/28 07:10:22;;;;;;;11.80;3.53;;;;;;;-148.56;100.00;61375.16;4973922;28;20667;-28
2022/07/28 07:12:48;;;;;;;6.90;2.92;;;;;;;-148.56;100.00;61375.16;4963580;28;20761;-25
2022/07/28 07:15:13;;;;;;;9.80;3.30;;;;;;;-148.56;100.00;61375.16;4970915;28;20084;-27
2022/07/28 07:17:40;;;;;;;7.10;3.60;;;;;;;-148.56;100.00;61375.16;4964050;28;20194;-29
2022/07/28 07:20:06;;;;;;;6.97;3.22;;;;;;;-148.56;100.00;61375.16;4966942;28;20042;-28
2022/07/28 07:22:31;;;;;;;7.22;3.30;;;;;;;-148.56;100.00;61375.16;4969034;28;20741;-28
2022/07/28 07:24:57;;;;;;;7.28;3.58;;;;;;;-148.56;100.00;61375.16;4960299;28;20187;-27
2022/07/28 07:27:22;;;;;;;6.10;3.10;;;;;;;-148.56;100.00;61375.16;4965579;28;20032;-27
2022/07/28 07:29:48;;;;;;;5.85;3.42;;;;;;;-148.56;100.00;61375.16;4962004;28;20036;-29
2022/07/28 07:32:13;;;;;;;9.57;3.60;;;;;;;-148.56;100.00;61375.16;4961032;28;20029;-25
2022/07/28 07:34:38;;;;;;;5.55;3.17;;;;;;;-148.56;100.00;61375.16;4960220;28;20642;-29
2022/07/28 07:37:05;;;;;;;7.95;3.20;;;;;;;-148.56;100.00;61375.16;4969541;28;20038;-29
2022/07/28 07:39:31;;;;;;;7.15;3.33;;;;;;;-148.56;100.00;61375.16;4960432;28;20038;-26
2022/07/28 07:41:56;;;;;;;10.90;3.65;;;;;;;-148.56;100.00;61375.16;4966853;28;20029;-31
2022/07/28 07:44:22;;;;;;;8.65;3.35;;;;;;;-148.56;100.00;61375.16;4959370;28;20994;-24
2022/07/28 07:46:47;;;;;;;12.43;3.83;;;;;;;-148.56;100.00;61375.16;4961786;28;20034;-27
2022/07/28 07:49:15;;;;;;;8.77;3.30;;;;;;;-148.56;100.00;61375.16;4968850;28;20033;-26
2022/07/28 07:51:41;;;;;;;11.50;3.83;;;;;;;-148.56;100.00;61375.16;4964258;28;20613;-27
2022/07/28 07:54:06;;;;;;;9.95;3.72;;;;;;;-148.56;100.00;61375.16;4971863;28;21070;-30
2022/07/28 07:56:32;;;;;;;9.35;3.97;;;;;;;-148.56;100.00;61375.16;4957325;28;21400;-28
2022/07/28 07:58:57;;;;;;;7.05;3.97;;;;;;;-148.56;100.00;61375.16;4967098;28;20083;-28
2022/07/28 08:01:23;;;;;;;6.28;3.70;;;;;;;-148.56;100.00;61375.16;4967746;28;20033;-27
2022/07/28 08:03:48;;;;;;;6.88;3.33;;;;;;;-148.56;100.00;61375.16;4958968;28;20033;-25
2022/07/28 08:06:14;;;;;;;8.32;3.60;;;;;;;-148.56;100.00;61375.16;4965532;28;20137;-31
2022/07/28 08:08:39;;;;;;;5.82;3.17;;;;;;;-148.56;100.00;61375.16;4974977;28;20034;-25
2022/07/28 08:11:04;;;;;;;6.63;3.60;;;;;;;-148.56;100.00;61375.16;4961751;28;20029;-24
2022/07/28 08:13:30;;;;;;;11.13;3.97;;;;;;;-148.56;100.00;61375.16;4967519;28;20030;-29
2022/07/28 08:15:55;;;;;;;10.93;3.50;;;;;;;-148.56;100.00;61375.16;4960333;28;21757;-26
2022/07/28 08:18:21;;;;;;;11.98;3.22;;;;;;;-148.56;100.00;61375.16;4970606;28;20518;-28
2022/07/28 08:20:46;;;;;;;16.35;3.70;;;;;;;-148.56;100.00;61375.16;4968645;28;20053;-26
2022/07/28 08:23:11;;;;;;;10.07;3.80;;;;;;;-148.56;100.00;61375.16;4964876;28;20026;-25
2022/07/28 08:25:37;;;;;;;19.65;3.53;;;;;;;-148.56;100.00;61375.16;4957010;28;20045;-28
2022/07/28 08:28:02;;;;;;;6.32;3.45;;;;;;;-148.56;100.00;61375.16;4968368;28;20140;-31
2022/07/28 08:30:28;;;;;;;12.27;3.58;;;;;;;-148.56;100.00;61375.16;4955106;28;20091;-31
2022/07/28 08:32:53;;;;;;;10.98;3.72;;;;;;;-148.56;100.00;61375.16;4941895;28;20768;-31
2022/07/28 08:35:19;;;;;;;10.05;3.20;;;;;;;-148.56;100.00;61375.16;4962888;28;20522;-32
2022/07/28 08:37:44;;;;;;;11.05;2.97;;;;;;;-148.56;100.00;61375.16;4952370;28;20481;-30
2022/07/28 08:40:15;;;;;;;5.50;3.13;;;;;;;-148.56;100.00;61375.16;4958118;28;20026;-29
2022/07/28 08:43:45;;;;;;;7.28;3.00;;;;;;;-148.56;100.00;61375.16;4957042;28;20030;-29
2022/07/28 08:46:11;;;;;;;8.43;3.50;;;;;;;-148.56;100.00;61375.16;4912789;28;20046;-28
2022/07/28 08:48:37;;;;;;;10.75;3.50;;;;;;;-148.56;100.00;61375.16;4925027;28;20042;-29
2022/07/28 08:51:04;;;;;;;6.47;3.10;;;;;;;-148.56;100.00;61375.16;4965633;28;20080;-28
2022/07/28 08:53:29;;;;;;;9.52;3.83;;;;;;;-148.56;100.00;61375.16;4966656;28;20045;-31
2022/07/28 08:55:58;;;;;;;6.32;3.53;;;;;;;-148.56;100.00;61375.16;4968895;28;20839;-30
2022/07/28 08:58:24;;;;;;;12.82;4.10;;;;;;;-148.56;100.00;61375.16;4966294;28;20041;-26
2022/07/28 09:00:49;;;;;;;11.00;4.05;;;;;;;-148.56;100.00;61375.16;4966584;28;20762;-28
2022/07/28 09:03:15;;;;;;;8.57;4.10;;;;;;;-148.56;100.00;61375.16;4963140;28;20168;-29
2022/07/28 09:05:41;;;;;;;12.88;4.30;;;;;;;-148.56;100.00;61375.16;4942386;28;20034;-28
2022/07/28 09:08:07;;;;;;;10.38;4.43;;;;;;;-148.56;100.00;61375.16;4945956;28;20032;-28
2022/07/28 09:10:32;;;;;;;13.13;4.45;;;;;;;-148.56;100.00;61375.16;4962711;28;20034;-30
2022/07/28 09:12:58;;;;;;;10.48;4.50;;;;;;;-148.56;100.00;61375.16;4968134;28;20026;-32
2022/07/28 09:15:23;;;;;;;11.57;4.45;;;;;;;-148.56;100.00;61375.16;4966278;28;20026;-29
2022/07/28 09:17:48;;;;;;;11.55;5.05;;;;;;;-148.56;100.00;61375.16;4968158;28;20030;-29
2022/07/28 09:20:14;;;;;;;11.38;4.63;;;;;;;-148.56;100.00;61375.16;4959851;28;20037;-29
2022/07/28 09:22:55;;;;;;;11.32;4.47;;;;;;;-148.56;100.00;61375.16;4958635;28;20135;-25
2022/07/28 09:25:21;;;;;;;10.55;4.00;;;;;;;-148.56;100.00;61375.16;4965549;28;20122;-28
2022/07/28 09:27:46;;;;;;;10.80;4.47;;;;;;;-148.56;100.00;61375.16;4971468;28;20033;-29
2022/07/28 09:30:12;;;;;;;12.57;4.53;;;;;;;-148.56;100.00;61375.16;4971047;28;20030;-28
2022/07/28 09:32:38;;;;;;;12.15;3.88;;;;;;;-148.56;100.00;61375.16;4962122;28;20116;-27
2022/07/28 09:35:03;;;;;;;10.02;4.05;;;;;;;-148.56;100.00;61375.16;4963005;28;20034;-27
2022/07/28 09:37:29;;;;;;;8.32;3.88;;;;;;;-148.56;100.00;61375.16;4962098;28;20033;-31
2022/07/28 09:39:57;;;;;;;10.57;4.18;;;;;;;-148.56;100.00;61375.16;4967050;28;20022;-30
2022/07/28 09:42:23;;;;;;;6.45;3.65;;;;;;;-148.56;100.00;61375.16;4968967;28;20030;-27
2022/07/28 09:45:06;;;;;;;10.50;4.15;;;;;;;-148.56;100.00;61375.16;4966528;28;20109;-31
2022/07/28 09:47:34;;;;;;;11.85;4.68;;;;;;;-148.56;100.00;61375.16;4961989;28;20044;-24
2022/07/28 09:50:00;;;;;;;9.68;3.83;;;;;;;-148.56;100.00;61375.16;4962917;28;20029;-31
2022/07/28 09:52:35;;;;;;;8.00;3.60;;;;;;;-148.56;100.00;61375.16;4968936;28;20064;-28
2022/07/28 09:55:05;;;;;;;8.60;3.72;;;;;;;-148.56;100.00;61375.16;4962619;28;20030;-25
2022/07/28 09:57:30;;;;;;;6.88;3.78;;;;;;;-148.56;100.00;61375.16;4968644;28;20315;-30
2022/07/28 09:59:56;;;;;;;8.82;3.90;;;;;;;-148.56;100.00;61375.16;4972365;28;20037;-27
2022/07/28 10:02:30;;;;;;;8.40;4.10;;;;;;;-148.56;100.00;61375.16;4970159;28;20037;-25
2022/07/28 10:04:56;;;;;;;14.18;4.15;;;;;;;-148.56;100.00;61375.16;4965488;28;20044;-22
2022/07/28 10:07:21;;;;;;;7.40;3.50;;;;;;;-148.56;100.00;61375.16;4967539;28;20033;-28
2022/07/28 10:10:06;;;;;;;6.70;3.50;;;;;;;-148.56;100.00;61375.16;4972311;28;20442;-28
2022/07/28 10:12:36;;;;;;;7.10;3.47;;;;;;;-148.56;100.00;61375.16;4968937;28;20041;-23
2022/07/28 10:18:11;;;;;;;6.95;3.67;;;;;;;-148.56;100.00;61375.16;4967967;28;20044;-30
2022/07/28 10:20:37;;;;;;;9.00;3.70;;;;;;;-148.56;100.00;61375.16;4962704;28;20281;-28
2022/07/28 10:23:04;;;;;;;7.85;3.47;;;;;;;-148.56;100.00;61375.16;4971975;28;21064;-28
2022/07/28 10:25:31;;;;;;;7.68;3.55;;;;;;;-148.56;100.00;61375.16;4970006;28;20761;-29
2022/07/28 10:27:58;;;;;;;8.45;3.50;;;;;;;-148.56;100.00;61375.16;4969739;28;20041;-29
2022/07/28 10:30:23;;;;;;;8.45;3.70;;;;;;;-148.56;100.00;61375.16;4963390;28;22068;-27
2022/07/28 10:32:49;;;;;;;9.40;3.40;;;;;;;-148.56;100.00;61375.16;4973367;28;20506;-27
2022/07/28 10:35:15;;;;;;;5.25;3.08;;;;;;;-148.56;100.00;61375.16;4949759;28;20030;-30
2022/07/28 10:37:51;;;;;;;7.43;3.08;;;;;;;-148.56;100.00;61375.16;4969930;28;20536;-27
2022/07/28 10:40:17;;;;;;;6.70;3.38;;;;;;;-148.56;100.00;61375.16;4973075;28;20057;-25
2022/07/28 10:42:42;;;;;;;7.47;3.60;;;;;;;-148.56;100.00;61375.16;4966602;28;20052;-29
2022/07/28 10:45:10;;;;;;;6.57;3.20;;;;;;;-148.56;100.00;61375.16;4962648;28;20068;-26
2022/07/28 10:47:35;;;;;;;8.93;3.30;;;;;;;-148.56;100.00;61375.16;4959234;28;20033;-27
2022/07/28 10:50:01;;;;;;;6.22;3.30;;;;;;;-148.56;100.00;61375.16;4964004;28;20796;-24
2022/07/28 10:52:26;;;;;;;5.97;3.03;;;;;;;-148.56;100.00;61375.16;4970999;28;20070;-24
2022/07/28 10:54:58;;;;;;;5.50;3.03;;;;;;;-148.56;100.00;61375.16;4946237;28;20026;-28
2022/07/28 10:57:23;;;;;;;10.23;3.20;;;;;;;-148.56;100.00;61375.16;4969208;28;20053;-29
2022/07/28 10:59:57;;;;;;;6.80;3.20;;;;;;;-148.56;100.00;61375.16;4975459;28;20756;-28
2022/07/28 11:02:45;;;;;;;6.60;3.00;;;;;;;-148.56;100.00;61375.16;4964833;28;20742;-28
2022/07/28 11:05:41;;;;;;;7.25;3.30;;;;;;;-148.56;100.00;61375.16;4964534;28;20367;-25
2022/07/28 11:08:16;;;;;;;6.82;3.15;;;;;;;-148.56;100.00;61375.16;4969534;28;20076;-32
2022/07/28 11:10:50;;;;;;;5.43;2.85;;;;;;;-148.56;100.00;61375.16;4967445;28;20034;-26